createdAt,value
2022-08-27T00:01:22.008Z,24.97
2022-08-27T00:03:48.738Z,25.90
2022-08-27T00:06:17.310Z,22.63
2022-08-27T00:08:44.654Z,23.93
2022-08-27T00:11:12.459Z,19.70
2022-08-27T00:13:39.907Z,22.83
2022-08-27T00:16:09.153Z,24.93
2022-08-27T00:18:37.223Z,20.20
2022-08-27T00:21:04.538Z,30.43
2022-08-27T00:23:34.537Z,25.43
2022-08-27T00:26:01.379Z,20.10
2022-08-27T00:28:28.975Z,25.00
2022-08-27T00:30:56.242Z,19.90
2022-08-27T00:33:23.513Z,35.47
2022-08-27T00:35:50.978Z,26.03
2022-08-27T00:38:18.633Z,21.63
2022-08-27T00:40:45.649Z,23.47
2022-08-27T00:43:12.692Z,25.57
2022-08-27T00:45:43.303Z,18.27
2022-08-27T00:48:15.267Z,24.93
2022-08-27T00:50:53.391Z,20.77
2022-08-27T00:53:23.477Z,33.20
2022-08-27T00:55:59.875Z,22.03
2022-08-27T00:58:37.146Z,28.70
2022-08-27T01:01:07.658Z,26.87
2022-08-27T01:03:35.477Z,24.47
2022-08-27T01:06:05.001Z,27.17
2022-08-27T01:08:37.060Z,25.00
2022-08-27T01:11:06.215Z,34.60
2022-08-27T01:13:59.043Z,24.10
2022-08-27T01:16:25.284Z,30.43
2022-08-27T01:18:53.726Z,31.57
2022-08-27T01:21:41.640Z,24.83
2022-08-27T01:24:33.338Z,31.23
2022-08-27T01:27:01.014Z,34.67
2022-08-27T01:29:28.405Z,28.47
2022-08-27T01:32:05.480Z,34.80
2022-08-27T01:34:32.276Z,30.63
2022-08-27T01:36:58.925Z,29.10
2022-08-27T01:39:25.582Z,30.97
2022-08-27T01:41:52.712Z,26.13
2022-08-27T01:44:21.035Z,34.07
2022-08-27T01:46:47.911Z,35.20
2022-08-27T01:49:14.601Z,39.50
2022-08-27T01:51:41.797Z,39.60
2022-08-27T01:54:08.449Z,32.43
2022-08-27T01:56:35.083Z,34.57
2022-08-27T01:59:01.762Z,31.60
2022-08-27T02:01:28.480Z,50.13
2022-08-27T02:03:55.808Z,41.20
2022-08-27T02:06:22.538Z,38.03
2022-08-27T02:08:49.226Z,39.73
2022-08-27T02:11:15.861Z,29.47
2022-08-27T02:13:42.526Z,40.20
2022-08-27T02:16:09.365Z,40.57
2022-08-27T02:18:38.352Z,47.90
2022-08-27T02:21:08.748Z,38.23
2022-08-27T02:23:35.516Z,31.20
2022-08-27T02:26:02.164Z,32.63
2022-08-27T02:28:28.943Z,28.07
2022-08-27T02:30:55.748Z,28.90
2022-08-27T02:33:22.520Z,26.47
2022-08-27T02:35:49.927Z,31.00
2022-08-27T02:38:16.590Z,37.53
2022-08-27T02:40:43.254Z,29.13
2022-08-27T02:43:09.906Z,30.93
2022-08-27T02:45:42.415Z,30.70
2022-08-27T02:48:09.718Z,30.33
2022-08-27T02:50:36.686Z,35.37
2022-08-27T02:53:05.923Z,28.17
2022-08-27T02:55:33.430Z,33.27
2022-08-27T02:58:00.068Z,49.17
2022-08-27T03:00:28.691Z,30.83
2022-08-27T03:02:56.282Z,29.23
2022-08-27T03:05:23.946Z,38.57
2022-08-27T03:07:50.767Z,28.17
2022-08-27T03:10:19.560Z,35.13
2022-08-27T03:12:47.157Z,33.00
2022-08-27T03:15:18.151Z,28.60
2022-08-27T03:18:04.769Z,25.30
2022-08-27T03:20:31.575Z,24.30
2022-08-27T03:22:58.366Z,28.50
2022-08-27T03:25:25.414Z,27.30
2022-08-27T03:27:52.495Z,28.03
2022-08-27T03:30:21.436Z,26.70
2022-08-27T03:32:48.330Z,28.57
2022-08-27T03:35:15.145Z,34.47
2022-08-27T03:37:42.158Z,29.57
2022-08-27T03:40:09.564Z,36.40
2022-08-27T03:42:37.400Z,38.27
2022-08-27T03:45:04.907Z,31.33
2022-08-27T03:47:32.294Z,37.97
2022-08-27T03:50:00.626Z,36.60
2022-08-27T03:52:27.838Z,36.43
2022-08-27T03:54:54.476Z,29.47
2022-08-27T03:57:21.171Z,28.20
2022-08-27T03:59:47.812Z,30.13
2022-08-27T04:02:19.729Z,40.73
2022-08-27T04:04:46.372Z,29.10
2022-08-27T04:07:13.250Z,37.37
2022-08-27T04:09:39.934Z,29.67
2022-08-27T04:12:06.830Z,30.10
2022-08-27T04:14:34.647Z,35.33
2022-08-27T04:17:02.213Z,33.67
2022-08-27T04:19:32.249Z,31.93
2022-08-27T04:22:01.346Z,34.97
2022-08-27T04:24:29.324Z,27.00
2022-08-27T04:26:56.006Z,24.40
2022-08-27T04:29:22.683Z,42.47
2022-08-27T04:31:49.479Z,26.40
2022-08-27T04:34:17.698Z,33.87
2022-08-27T04:36:46.000Z,33.27
2022-08-27T04:39:14.363Z,25.33
2022-08-27T04:41:41.572Z,27.40
2022-08-27T04:44:10.442Z,31.03
2022-08-27T04:46:40.185Z,21.97
2022-08-27T04:49:15.283Z,28.27
2022-08-27T04:51:43.014Z,25.47
2022-08-27T04:54:10.579Z,19.10
2022-08-27T04:56:38.215Z,27.87
2022-08-27T04:59:08.037Z,26.20
2022-08-27T05:01:34.992Z,24.80
2022-08-27T05:04:01.754Z,25.07
2022-08-27T05:06:28.673Z,30.87
2022-08-27T05:08:56.023Z,24.70
2022-08-27T05:11:26.223Z,24.07
2022-08-27T05:13:53.017Z,19.77
2022-08-27T05:16:22.702Z,20.60
2022-08-27T05:18:51.685Z,29.30
2022-08-27T05:21:24.662Z,26.00
2022-08-27T05:23:52.561Z,25.43
2022-08-27T05:26:20.128Z,38.90
2022-08-27T05:28:46.807Z,22.27
2022-08-27T05:31:15.712Z,26.93
2022-08-27T05:33:43.846Z,28.43
2022-08-27T05:36:20.617Z,27.03
2022-08-27T05:38:51.529Z,22.97
2022-08-27T05:41:22.096Z,33.03
2022-08-27T05:43:50.549Z,35.20
2022-08-27T05:46:20.426Z,30.20
2022-08-27T05:48:48.238Z,25.47
2022-08-27T05:51:26.040Z,29.80
2022-08-27T05:54:06.807Z,28.80
2022-08-27T05:56:38.131Z,29.40
2022-08-27T05:59:24.042Z,27.20
2022-08-27T06:01:52.193Z,38.53
2022-08-27T06:04:20.767Z,32.17
2022-08-27T06:06:49.112Z,38.90
2022-08-27T06:09:22.175Z,26.40
2022-08-27T06:11:49.266Z,23.70
2022-08-27T06:14:16.219Z,27.47
2022-08-27T06:16:42.899Z,35.57
2022-08-27T06:19:12.148Z,28.27
2022-08-27T06:21:40.527Z,28.83
2022-08-27T06:24:07.486Z,29.37
2022-08-27T06:26:34.709Z,45.33
2022-08-27T06:29:07.103Z,29.43
2022-08-27T06:31:35.589Z,32.20
2022-08-27T06:34:07.553Z,25.07
2022-08-27T06:36:38.217Z,26.03
2022-08-27T06:39:05.788Z,31.73
2022-08-27T06:41:34.157Z,30.57
2022-08-27T06:44:01.306Z,24.23
2022-08-27T06:46:29.484Z,29.60
2022-08-27T06:48:59.223Z,30.33
2022-08-27T06:51:31.903Z,28.67
2022-08-27T06:54:02.470Z,31.27
2022-08-27T06:56:31.011Z,27.37
2022-08-27T06:59:00.264Z,22.97
2022-08-27T07:01:31.446Z,21.67
2022-08-27T07:04:00.855Z,22.70
2022-08-27T07:06:29.428Z,24.93
2022-08-27T07:08:57.089Z,21.50
2022-08-27T07:11:24.751Z,24.43
2022-08-27T07:13:52.051Z,32.67
2022-08-27T07:16:23.292Z,26.47
2022-08-27T07:18:52.203Z,30.53
2022-08-27T07:21:22.345Z,25.47
2022-08-27T07:23:51.965Z,22.03
2022-08-27T07:26:19.608Z,17.57
2022-08-27T07:28:47.118Z,24.90
2022-08-27T07:31:20.574Z,30.33
2022-08-27T07:33:51.539Z,26.53
2022-08-27T07:36:21.220Z,22.93
2022-08-27T07:38:52.712Z,23.17
2022-08-27T07:41:32.214Z,30.53
2022-08-27T07:44:19.059Z,26.40
2022-08-27T07:46:48.258Z,26.93
2022-08-27T07:49:19.561Z,20.20
2022-08-27T07:51:46.612Z,17.57
2022-08-27T07:54:13.754Z,18.67
2022-08-27T07:56:40.547Z,24.33
2022-08-27T07:59:08.146Z,27.03
2022-08-27T08:01:35.138Z,20.90
2022-08-27T08:04:02.687Z,21.87
2022-08-27T08:06:29.421Z,22.27
2022-08-27T08:08:56.148Z,25.67
2022-08-27T08:11:22.822Z,26.80
2022-08-27T08:13:49.454Z,28.73
2022-08-27T08:16:16.318Z,21.43
2022-08-27T08:18:43.304Z,27.47
2022-08-27T08:21:13.839Z,25.40
2022-08-27T08:23:41.389Z,21.77
2022-08-27T08:26:08.837Z,27.17
2022-08-27T08:28:37.093Z,21.87
2022-08-27T08:31:05.003Z,26.87
2022-08-27T08:33:32.864Z,23.87
2022-08-27T08:36:06.190Z,17.33
2022-08-27T08:38:33.041Z,32.47
2022-08-27T08:41:00.280Z,16.43
2022-08-27T08:43:35.793Z,17.20
2022-08-27T08:46:31.200Z,25.73
2022-08-27T08:49:06.592Z,22.90
2022-08-27T08:51:41.397Z,20.17
2022-08-27T08:54:19.112Z,25.13
2022-08-27T08:57:07.877Z,20.90
2022-08-27T08:59:38.671Z,16.13
2022-08-27T09:02:13.545Z,26.97
2022-08-27T09:04:42.050Z,22.60
2022-08-27T09:07:26.215Z,19.03
2022-08-27T09:09:58.237Z,19.10
2022-08-27T09:12:30.680Z,22.70
2022-08-27T09:15:15.140Z,27.53
2022-08-27T09:17:42.166Z,22.67
2022-08-27T09:20:13.223Z,22.57
2022-08-27T09:22:59.824Z,21.17
2022-08-27T09:25:33.362Z,20.97
2022-08-27T09:28:04.329Z,27.00
2022-08-27T09:30:40.957Z,17.53
2022-08-27T09:33:07.669Z,19.53
2022-08-27T09:35:46.334Z,16.80
2022-08-27T09:38:26.715Z,24.40
2022-08-27T09:40:53.512Z,23.83
2022-08-27T09:43:23.706Z,25.77
2022-08-27T09:45:54.318Z,21.13
2022-08-27T09:48:25.505Z,18.60
2022-08-27T09:50:55.443Z,12.60
2022-08-27T09:53:28.434Z,21.13
2022-08-27T09:56:04.987Z,14.97
2022-08-27T09:58:47.404Z,17.00
2022-08-27T10:01:24.133Z,17.53
2022-08-27T10:04:02.692Z,19.83
2022-08-27T10:06:32.340Z,18.77
2022-08-27T10:09:25.423Z,20.90
2022-08-27T10:12:33.948Z,24.87
2022-08-27T10:15:03.721Z,25.97
2022-08-27T10:17:33.344Z,20.17
2022-08-27T10:20:30.280Z,20.57
2022-08-27T10:23:31.353Z,22.43
2022-08-27T10:26:18.322Z,16.33
2022-08-27T10:29:03.508Z,20.20
2022-08-27T10:31:47.110Z,24.07
2022-08-27T10:34:31.528Z,21.60
2022-08-27T10:37:36.682Z,21.23
2022-08-27T10:40:29.918Z,17.23
2022-08-27T10:43:13.084Z,16.33
2022-08-27T10:45:50.933Z,13.43
2022-08-27T10:48:46.215Z,18.70
2022-08-27T10:51:23.247Z,16.57
2022-08-27T10:53:52.648Z,16.47
2022-08-27T10:56:42.296Z,15.60
2022-08-27T10:59:43.773Z,30.27
2022-08-27T11:02:36.123Z,21.80
2022-08-27T11:05:19.425Z,25.50
2022-08-27T11:07:53.907Z,21.10
2022-08-27T11:10:30.906Z,15.40
2022-08-27T11:13:05.845Z,24.23
2022-08-27T11:15:38.787Z,18.53
2022-08-27T11:18:08.683Z,27.80
2022-08-27T11:20:44.957Z,14.50
2022-08-27T11:23:22.351Z,11.33
2022-08-27T11:25:59.606Z,14.27
2022-08-27T11:28:38.754Z,10.97
2022-08-27T11:31:11.659Z,13.70
2022-08-27T11:33:50.778Z,19.53
2022-08-27T11:36:45.354Z,14.83
2022-08-27T11:39:25.885Z,9.93
2022-08-27T11:41:59.757Z,13.53
2022-08-27T11:44:27.602Z,20.87
2022-08-27T11:47:13.474Z,11.70
2022-08-27T11:50:05.723Z,15.20
2022-08-27T11:52:39.443Z,31.17
2022-08-27T11:55:23.742Z,22.33
2022-08-27T11:58:05.338Z,22.50
2022-08-27T12:00:35.031Z,19.67
2022-08-27T12:03:05.852Z,20.07
2022-08-27T12:05:37.543Z,7.70
2022-08-27T12:08:21.776Z,9.30
2022-08-27T12:10:54.874Z,14.33
2022-08-27T12:13:40.548Z,13.03
2022-08-27T12:16:27.165Z,13.97
2022-08-27T12:19:13.039Z,10.03
2022-08-27T12:21:39.648Z,10.10
2022-08-27T12:24:32.043Z,9.43
2022-08-27T12:27:24.695Z,10.77
2022-08-27T12:30:02.606Z,8.27
2022-08-27T12:32:34.939Z,7.23
2022-08-27T12:35:37.257Z,14.93
2022-08-27T12:38:21.924Z,9.20
2022-08-27T12:40:52.007Z,9.47
2022-08-27T12:43:21.834Z,14.80
2022-08-27T12:45:49.961Z,11.80
2022-08-27T12:48:24.058Z,10.40
2022-08-27T12:51:00.843Z,19.40
2022-08-27T12:53:43.471Z,10.20
2022-08-27T12:56:39.631Z,8.80
2022-08-27T12:59:29.632Z,10.33
2022-08-27T13:02:32.097Z,11.13
2022-08-27T13:05:10.016Z,9.97
2022-08-27T13:07:44.662Z,11.27
2022-08-27T13:10:14.148Z,13.80
2022-08-27T13:12:42.826Z,16.00
2022-08-27T13:15:14.405Z,12.40
2022-08-27T13:17:45.137Z,9.00
2022-08-27T13:20:22.361Z,7.77
2022-08-27T13:22:50.847Z,23.20
2022-08-27T13:25:28.772Z,10.77
2022-08-27T13:28:04.048Z,13.67
2022-08-27T13:30:35.562Z,14.33
2022-08-27T13:33:05.858Z,11.10
2022-08-27T13:35:32.800Z,15.73
2022-08-27T13:38:02.331Z,10.03
2022-08-27T13:40:32.296Z,10.93
2022-08-27T13:43:08.802Z,7.13
2022-08-27T13:45:38.528Z,11.80
2022-08-27T13:48:06.684Z,16.43
2022-08-27T13:50:34.998Z,9.70
2022-08-27T13:53:26.278Z,11.53
2022-08-27T13:55:54.784Z,13.00
2022-08-27T13:58:28.685Z,6.07
2022-08-27T14:01:07.035Z,11.77
2022-08-27T14:03:36.757Z,12.57
2022-08-27T14:06:03.600Z,5.33
2022-08-27T14:08:35.809Z,6.27
2022-08-27T14:11:09.567Z,7.33
2022-08-27T14:13:47.624Z,9.80
2022-08-27T14:16:22.073Z,5.30
2022-08-27T14:19:09.036Z,6.77
2022-08-27T14:21:39.552Z,14.10
2022-08-27T14:24:07.149Z,7.13
2022-08-27T14:26:34.374Z,5.13
2022-08-27T14:29:01.066Z,13.07
2022-08-27T14:31:28.593Z,8.53
2022-08-27T14:33:55.420Z,9.20
2022-08-27T14:36:23.909Z,5.10
2022-08-27T14:38:52.533Z,7.93
2022-08-27T14:41:21.534Z,7.27
2022-08-27T14:43:48.883Z,9.23
2022-08-27T14:46:28.567Z,11.67
2022-08-27T14:48:57.896Z,5.70
2022-08-27T14:51:27.380Z,8.73
2022-08-27T14:53:55.819Z,8.43
2022-08-27T14:56:23.984Z,8.00
2022-08-27T14:58:51.435Z,7.07
2022-08-27T15:01:20.544Z,4.53
2022-08-27T15:03:49.298Z,7.97
2022-08-27T15:06:17.621Z,7.57
2022-08-27T15:08:45.039Z,10.33
2022-08-27T15:11:16.771Z,6.83
2022-08-27T15:13:44.214Z,10.70
2022-08-27T15:16:14.802Z,8.93
2022-08-27T15:18:41.552Z,9.60
2022-08-27T15:21:08.377Z,6.00
2022-08-27T15:23:36.627Z,11.20
2022-08-27T15:26:03.323Z,9.43
2022-08-27T15:28:29.982Z,6.90
2022-08-27T15:30:56.678Z,7.90
2022-08-27T15:33:23.482Z,12.63
2022-08-27T15:35:50.158Z,11.60
2022-08-27T15:38:16.850Z,8.30
2022-08-27T15:40:43.748Z,10.00
2022-08-27T15:43:12.017Z,8.50
2022-08-27T15:45:39.150Z,10.90
2022-08-27T15:48:06.025Z,7.50
2022-08-27T15:50:34.336Z,5.00
2022-08-27T15:53:04.865Z,16.20
2022-08-27T15:55:34.822Z,6.87
2022-08-27T15:58:01.635Z,16.00
2022-08-27T16:00:30.019Z,14.57
2022-08-27T16:02:57.394Z,3.70
2022-08-27T16:05:25.194Z,10.83
2022-08-27T16:07:51.854Z,22.13
2022-08-27T16:10:18.673Z,24.13
2022-08-27T16:12:46.180Z,5.33
2022-08-27T16:15:13.454Z,6.67
2022-08-27T16:17:40.409Z,13.37
2022-08-27T16:20:09.057Z,14.33
2022-08-27T16:22:36.391Z,6.57
2022-08-27T16:25:04.498Z,12.50
2022-08-27T16:27:31.437Z,21.33
2022-08-27T16:29:58.103Z,11.63
2022-08-27T16:32:27.772Z,6.20
2022-08-27T16:34:55.941Z,12.03
2022-08-27T16:37:24.326Z,8.17
2022-08-27T16:39:51.302Z,11.87
2022-08-27T16:42:18.092Z,11.13
2022-08-27T16:44:44.864Z,10.07
2022-08-27T16:47:11.605Z,11.27
2022-08-27T16:49:56.847Z,6.33
2022-08-27T16:52:23.908Z,9.77
2022-08-27T16:54:51.885Z,14.53
2022-08-27T16:57:19.038Z,19.00
2022-08-27T16:59:45.799Z,6.80
2022-08-27T17:02:23.455Z,11.23
2022-08-27T17:05:07.186Z,6.97
2022-08-27T17:07:43.938Z,10.90
2022-08-27T17:10:13.179Z,8.80
2022-08-27T17:12:40.766Z,13.80
2022-08-27T17:15:09.602Z,9.13
2022-08-27T17:17:38.742Z,17.53
2022-08-27T17:20:06.448Z,10.83
2022-08-27T17:22:34.909Z,22.43
2022-08-27T17:25:01.661Z,16.73
2022-08-27T17:27:28.314Z,12.13
2022-08-27T17:29:55.014Z,15.20
2022-08-27T17:32:21.905Z,10.80
2022-08-27T17:34:48.552Z,20.97
2022-08-27T17:37:15.207Z,16.83
2022-08-27T17:39:45.377Z,7.43
2022-08-27T17:42:12.125Z,11.47
2022-08-27T17:44:38.969Z,21.10
2022-08-27T17:47:07.898Z,12.33
2022-08-27T17:49:35.185Z,20.20
2022-08-27T17:52:06.878Z,14.93
2022-08-27T17:54:39.450Z,17.27
2022-08-27T17:57:20.222Z,10.03
2022-08-27T17:59:47.423Z,12.77
2022-08-27T18:02:29.961Z,18.67
2022-08-27T18:04:58.034Z,8.03
2022-08-27T18:07:25.169Z,14.13
2022-08-27T18:09:52.371Z,10.53
2022-08-27T18:12:23.440Z,11.90
2022-08-27T18:14:58.829Z,18.37
2022-08-27T18:17:25.482Z,25.30
2022-08-27T18:19:52.137Z,12.60
2022-08-27T18:22:19.494Z,10.93
2022-08-27T18:24:46.151Z,19.63
2022-08-27T18:27:13.010Z,12.77
2022-08-27T18:29:39.630Z,13.53
2022-08-27T18:32:06.299Z,11.57
2022-08-27T18:34:33.003Z,14.90
2022-08-27T18:36:59.642Z,10.97
2022-08-27T18:39:26.530Z,24.70
2022-08-27T18:41:54.088Z,12.50
2022-08-27T18:44:20.747Z,23.03
2022-08-27T18:46:47.588Z,5.20
2022-08-27T18:49:14.509Z,14.40
2022-08-27T18:51:43.618Z,12.87
2022-08-27T18:54:10.754Z,10.40
2022-08-27T18:56:37.449Z,27.93
2022-08-27T18:59:06.772Z,14.87
2022-08-27T19:01:33.839Z,15.63
2022-08-27T19:04:01.042Z,11.47
2022-08-27T19:06:27.770Z,9.03
2022-08-27T19:08:54.505Z,15.50
2022-08-27T19:11:21.170Z,15.40
2022-08-27T19:13:50.692Z,7.67
2022-08-27T19:16:24.791Z,16.53
2022-08-27T19:18:51.928Z,14.60
2022-08-27T19:21:18.565Z,20.13
2022-08-27T19:23:45.249Z,11.10
2022-08-27T19:26:18.059Z,19.40
2022-08-27T19:28:45.224Z,16.33
2022-08-27T19:31:13.596Z,12.33
2022-08-27T19:33:40.950Z,8.50
2022-08-27T19:36:13.746Z,21.07
2022-08-27T19:38:43.001Z,14.23
2022-08-27T19:41:09.662Z,12.07
2022-08-27T19:43:36.430Z,14.37
2022-08-27T19:46:14.191Z,12.87
2022-08-27T19:48:40.934Z,10.83
2022-08-27T19:51:07.781Z,14.27
2022-08-27T19:53:35.472Z,15.03
2022-08-27T19:56:02.283Z,11.70
2022-08-27T19:58:29.241Z,20.80
2022-08-27T20:00:56.014Z,15.97
2022-08-27T20:03:23.126Z,20.87
2022-08-27T20:05:51.947Z,23.00
2022-08-27T20:08:19.886Z,15.87
2022-08-27T20:10:47.107Z,13.17
2022-08-27T20:13:14.437Z,14.73
2022-08-27T20:15:41.811Z,15.23
2022-08-27T20:18:09.587Z,13.97
2022-08-27T20:20:37.378Z,20.37
2022-08-27T20:23:05.161Z,15.50
2022-08-27T20:25:33.457Z,13.30
2022-08-27T20:28:16.413Z,21.50
2022-08-27T20:30:48.776Z,19.10
2022-08-27T20:33:16.492Z,11.33
2022-08-27T20:35:44.344Z,15.50
2022-08-27T20:38:11.202Z,9.53
2022-08-27T20:40:37.924Z,15.90
2022-08-27T20:43:04.690Z,14.87
2022-08-27T20:45:31.516Z,16.20
2022-08-27T20:47:59.086Z,20.37
2022-08-27T20:50:25.983Z,20.13
2022-08-27T20:52:52.785Z,15.80
2022-08-27T20:55:20.183Z,32.93
2022-08-27T20:58:06.895Z,20.53
2022-08-27T21:00:35.265Z,14.70
2022-08-27T21:03:02.160Z,25.80
2022-08-27T21:05:33.516Z,10.57
2022-08-27T21:08:00.603Z,15.43
2022-08-27T21:10:27.306Z,15.27
2022-08-27T21:12:53.970Z,14.60
2022-08-27T21:15:20.816Z,20.33
2022-08-27T21:17:47.729Z,31.13
2022-08-27T21:20:14.642Z,26.03
2022-08-27T21:22:43.188Z,18.87
2022-08-27T21:25:12.152Z,15.03
2022-08-27T21:27:39.605Z,25.20
2022-08-27T21:30:08.400Z,13.73
2022-08-27T21:32:35.152Z,15.63
2022-08-27T21:35:02.031Z,22.77
2022-08-27T21:37:28.853Z,16.60
2022-08-27T21:39:55.553Z,20.73
2022-08-27T21:42:23.162Z,17.27
2022-08-27T21:44:49.831Z,18.43
2022-08-27T21:47:16.629Z,28.90
2022-08-27T21:49:43.602Z,22.67
2022-08-27T21:52:10.541Z,21.27
2022-08-27T21:54:39.629Z,14.13
2022-08-27T21:57:06.565Z,19.70
2022-08-27T21:59:39.020Z,24.90
2022-08-27T22:02:22.931Z,12.50
2022-08-27T22:04:52.548Z,16.47
2022-08-27T22:07:19.408Z,20.03
2022-08-27T22:09:46.410Z,19.73
2022-08-27T22:12:13.080Z,17.67
2022-08-27T22:14:41.089Z,15.20
2022-08-27T22:17:07.759Z,26.53
2022-08-27T22:19:34.449Z,20.33
2022-08-27T22:22:01.127Z,23.33
2022-08-27T22:24:27.871Z,19.97
2022-08-27T22:26:54.574Z,15.30
2022-08-27T22:29:21.289Z,15.90
2022-08-27T22:31:47.989Z,14.40
2022-08-27T22:34:14.943Z,18.83
2022-08-27T22:36:42.353Z,13.10
2022-08-27T22:39:09.108Z,11.33
2022-08-27T22:41:35.851Z,18.63
2022-08-27T22:44:05.224Z,20.30
2022-08-27T22:46:32.029Z,14.57
2022-08-27T22:48:58.893Z,14.10
2022-08-27T22:51:25.686Z,16.70
2022-08-27T22:53:52.374Z,20.00
2022-08-27T22:56:19.299Z,19.93
2022-08-27T22:58:46.492Z,14.97
2022-08-27T23:01:18.166Z,14.17
2022-08-27T23:03:44.960Z,13.73
2022-08-27T23:06:11.840Z,24.17
2022-08-27T23:08:38.653Z,11.17
2022-08-27T23:11:05.534Z,15.27
2022-08-27T23:13:32.995Z,11.10
2022-08-27T23:16:01.408Z,16.97
2022-08-27T23:18:28.498Z,18.03
2022-08-27T23:20:55.578Z,14.67
2022-08-27T23:23:22.636Z,10.63
2022-08-27T23:26:11.958Z,32.47
2022-08-27T23:28:38.653Z,10.43
2022-08-27T23:31:06.125Z,17.73
2022-08-27T23:33:32.822Z,22.87
2022-08-27T23:35:59.533Z,12.53
2022-08-27T23:38:26.287Z,16.33
2022-08-27T23:40:53.336Z,12.20
2022-08-27T23:43:20.578Z,10.00
2022-08-27T23:45:48.029Z,18.27
2022-08-27T23:48:14.788Z,16.30
2022-08-27T23:50:42.183Z,23.60
2022-08-27T23:53:11.379Z,8.10
2022-08-27T23:55:40.289Z,24.77
2022-08-27T23:58:08.220Z,15.77
